NCAR-RAP Real-Time Weather Data

Output produced by METARs form (06 May 2021  15:48 UTC)
found at http://weather.rap.ucar.edu/surface/
 
KAAF 061520Z AUTO 17004KT 10SM FEW008 BKN014 23/21 A3008 RMK AO2 T02280211 $
KAAF 061511Z AUTO 00000KT 10SM SCT006 SCT014 SCT049 23/21 A3007 RMK AO2 LTG DSNT E T02330211 $
KAAF 061453Z AUTO 00000KT 10SM BKN006 23/22 A3007 RMK AO2 RAE01 TSE00 CIG 004V008 SLP182 P0001 60112 T02330222 $
KAAF 061439Z AUTO 10003KT 10SM FEW004 SCT120 22/22 A3007 RMK AO2 LTG DSNT E AND SE RAE01 TSE00 P0001 T02220217 $
KAAF 061425Z AUTO 16004KT 10SM FEW049 BKN120 22/22 A3008 RMK AO2 LTG DSNT N AND SE RAE01 TSE00 P0001 T02170217 $
KAAF 061400Z AUTO 16003KT 10SM VCTS -RA FEW007 BKN031 OVC065 21/21 A3009 RMK AO2 LTG DSNT NW-E TSE00 P0000 T02060206 $
KAAF 061353Z AUTO 00000KT 9SM -TSRA FEW007 BKN029 OVC055 21/21 A3009 RMK AO2 LTG DSNT NW-E RAE12111259B1211B1255 TSB1206E1258B45 SLP189 P0110 T02060206 $
KAAF 061348Z AUTO 00000KT 6SM TSRA BR FEW007 BKN029 OVC065 21/21 A3009 RMK AO2 LTG DSNT NW-E RAE12111259B1211B1255 TSB1206E1258B45 P0110 $
KAAF 061330Z AUTO 02003KT 7SM VCTS -RA SCT008 BKN041 OVC100 21/21 A3008 RMK AO2 LTG DSNT ALQDS RAE12111259B1211B1255 TSB1206E1258 P0102 T02110211 $
KAAF 061300Z AUTO 17004KT VCTS +RA 21/21 A3009 RMK AO2 LTG DSNT ALQDS RAE12111259B1211B1255 TSB1206E1258 P0077 T02060206 $
KAAF 061234Z AUTO 05003KT 2SM +TSRA BR BKN030 BKN038 OVC046 21/21 A3007 RMK AO2 VIS 1 1/4V3 LTG DSNT ALQDS RAE1159B11 TSB06 P0040 T02110211
KAAF 061217Z AUTO 00000KT 1 1/2SM +TSRA BR SCT025 OVC040 21/21 A3006 RMK AO2 LTG DSNT W-NE RAE1159B11 TSB06 P0004 T02110211
KAAF 061212Z AUTO 01005KT 10SM -TSRA OVC040 22/22 A3005 RMK AO2 LTG DSNT ALQDS RAE1159B11 TSB06 P0000 T02170217
KAAF 061200Z AUTO 08004KT 10SM VCTS OVC040 22/22 A3004 RMK AO2 LTG DSNT SW-NW RAE1159 P0000 T02220217
KAAF 061153Z AUTO 00000KT 10SM -RA BKN038 OVC048 22/22 A3004 RMK AO2 LTG DSNT W AND NW RAB45 SLP172 P0001 60001 70021 T02170217 10222 20211 53007
KAAF 061053Z AUTO 00000KT 10SM BKN037 BKN055 BKN120 22/22 A3003 RMK AO2 SLP170 T02170217
KAAF 060953Z AUTO 02003KT 10SM BKN041 OVC049 22/22 A3003 RMK AO2 SLP167 T02220217
KAAF 060853Z AUTO 02003KT 10SM OVC033 22/22 A3002 RMK AO2 SLP165 T02170217 55002
KAAF 060753Z AUTO 00000KT 10SM BKN038 OVC046 22/22 A3002 RMK AO2 SLP165 T02170217
KAAF 060653Z AUTO 00000KT 10SM BKN039 OVC049 22/22 A3002 RMK AO2 SLP166 T02170217
KAAF 060627Z AUTO 02004KT 10SM SCT012 BKN042 OVC055 22/22 A3002 RMK AO2 T02170217
KAAF 060553Z AUTO 03004KT 10SM BKN011 OVC055 22/22 A3003 RMK AO2 SLP168 T02170217 10239 20206 50000
KAAF 060537Z AUTO 04003KT 10SM BKN012 21/21 A3003 RMK AO2 T02110211
KAAF 060453Z AUTO 00000KT 10SM CLR 21/21 A3003 RMK AO2 SLP169 T02110211 402830200
KAAF 060353Z AUTO 02003KT 10SM CLR 21/21 A3003 RMK AO2 SLP170 T02110211
KAAF 060253Z AUTO 00000KT 10SM CLR 22/22 A3003 RMK AO2 SLP167 T02170217 53010
KAAF 060153Z AUTO 32003KT 10SM CLR 23/22 A3001 RMK AO2 SLP160 T02330222
KAAF 060053Z AUTO 22008KT 10SM CLR 24/22 A3001 RMK AO2 SLP161 T02390222
KAAF 052353Z AUTO 19008KT 10SM CLR 23/22 A2999 RMK AO2 SLP157 60018 T02330217 10283 20206 55016